The Gut Buster
Skip Navigation Links
28 December 2015
HyperLink
Click your name for detailed results
Page 1 of 7 (345 items)
[1]234567
Pos
Bib No
Fav
Share
Print
Name
Gun Time
Chip Time
Category
Cat Pos
Gender
Gen Pos
Club
Pace
1112Dan THORNE56:58.856:58.8Top 31Male1 10.5 m/hr
2206Luc JOLLY1:00:35.31:00:34.8Top 32Male2  9.9 m/hr
319Daniel WESTON1:01:50.91:01:50.9Top 33Male3  9.7 m/hr
4476Martin HIGGINS1:03:43.71:03:42.440-491Male4  9.4 m/hr
5348Andrew GRENVILLE1:04:52.11:04:51.840-492Male5TVT 9.2 m/hr
6339Graham BUNGAY1:06:16.41:06:15.850-591Male6WINCHESTER & DISTRICT AC 9.1 m/hr
788Tony ROBINSON1:07:38.41:07:35.8Under 401Male7HENLEY HARRIERS 8.9 m/hr
8424Joe SPRAGGINS1:07:50.41:07:49.2Under 402Male8SERPENTINE RC 8.8 m/hr
9478Gavin SPIERS1:07:59.91:07:59.9Under 403Male9TRI2O 8.8 m/hr
10254Jarrod KNIBBE1:08:07.61:08:04.9Under 404Male10ALWYN ALL STARS 8.8 m/hr
11145Ben WHALLEY1:08:08.91:08:06.140-493Male11READING ROADRUNNERS 8.8 m/hr
12367Neil RICHMOND1:08:11.51:08:10.550-592Male12EASTLEIGH 8.8 m/hr
13423Simon FREEMAN1:08:57.31:08:54.640-494Male13  8.7 m/hr
14343Nick ONSLOW1:09:26.81:09:24.240-495Male14BRAMLEY TRAIL RUNNERS 8.6 m/hr
15363Mark GORST1:09:54.01:09:50.940-496Male15BUTLERS LANDS FARM RUNNERS 8.6 m/hr
16402Tim DAVIES1:09:59.01:09:54.0Under 405Male16NEWBURY AC 8.6 m/hr
17689Tom LOVEGROVE1:10:13.21:10:09.3Under 406Male17  8.5 m/hr
18396Alex RODGER1:10:40.31:10:32.0Under 407Male18  8.5 m/hr
19379Gavin RENNIE1:10:46.51:10:38.450-593Male19READING ROADRUNNERS 8.5 m/hr
20152Mel WILKINS1:10:59.21:10:58.8Top 31Female1  8.5 m/hr
21330Stephen RIDLEY1:11:47.21:11:36.3Under 408Male20TRI2O 8.4 m/hr
22391Matthew DOWSE1:11:59.01:11:58.3Under 409Male21VEGAN RUNNERS 8.3 m/hr
23431Pete CROALL1:12:46.01:12:44.4Under 4010Male22STOPSLEY STRIDERS JOGGING CLUB 8.2 m/hr
24359Jim BRYCE1:12:55.01:12:50.740-497Male23BUTLERS LANDS FARM RUNNERS 8.2 m/hr
25130Richard COATES1:13:24.61:13:21.0Under 4011Male24TRI2O 8.2 m/hr
26385Fergal DONNELLY1:13:26.41:13:17.640-498Male25READING ROADRUNNERS 8.2 m/hr
27279Matthew HARVEY1:13:28.81:13:26.7Under 4012Male26TONBRIDGE AC 8.2 m/hr
28499Mindaugas KAMINSKAS1:13:32.11:13:30.240-499Male27HENLEY RUNNERS 8.2 m/hr
29481Robert POOLEY1:13:42.41:13:32.3Under 4013Male28  8.1 m/hr
30265Chris LEPPARD1:13:46.41:13:41.3Under 4014Male29WARGRAVE RUNNERS 8.1 m/hr
31345Rich WARNER1:14:01.01:13:57.6Under 4015Male30RUN HENLEY 8.1 m/hr
32382Clive SMITH1:14:04.21:14:01.5Under 4016Male31  8.1 m/hr
33292Chris WALKER1:14:47.41:14:34.5Under 4017Male32  8.0 m/hr
34436Amanda WILMER1:15:04.81:15:03.4Top 32Female2  8.0 m/hr
35298Ben WEBECK1:15:05.71:15:04.6Under 4018Male33  8.0 m/hr
36505Stephen COX1:15:15.01:14:42.8Under 4019Male34  8.0 m/hr
37495James LOCKHART1:15:15.91:15:05.2Under 4020Male35THAMES VALLEY TRIATHLETES 8.0 m/hr
38368Robin OAKLEY1:15:45.01:15:44.6Under 4021Male36WINCHESTER AND DISTRICT A.C. 7.9 m/hr
39174Alex RUSSELL1:15:53.41:15:52.7Under 4022Male37  7.9 m/hr
40361Julian HOUGH1:15:54.31:15:42.650-594Male38READING ROADRUNNERS 7.9 m/hr
41101Dean ALLAWAY1:16:13.71:16:04.8Under 4023Male39READING ROADRUNNERS 7.9 m/hr
42414Will HEADLAND1:16:37.81:16:33.9Under 4024Male40TRI20 7.8 m/hr
43256Stuart WILLIAMS1:16:40.01:16:23.340-4910Male41  7.8 m/hr
44449Liam PRYER1:16:43.91:16:41.4Under 4025Male42  7.8 m/hr
45460Steve FLECK1:16:51.11:16:43.350-595Male43TADLEY RUNNERS 7.8 m/hr
46492Spencer JEROME1:16:51.91:16:41.8Under 4026Male44  7.8 m/hr
47312Lee BODELL1:16:58.91:16:55.240-4911Male45  7.8 m/hr
48331Harriet CHETTLEBURGH1:17:00.71:16:59.1Top 33Female3TRI2O 7.8 m/hr
4993Freddie BRYCE1:17:01.71:16:57.7Under 4027Male46  7.8 m/hr
50445Tony WALKER1:17:12.01:17:11.440-4912Male47TRI2O 7.8 m/hr
Page 1 of 7 (345 items)
[1]234567
fb